Ocean Cobalt — 3ESD9 — position and weather

sailwx.info

Track history (hours):
 
Tides and Currents Weather Stations Pressure Air Temp Water Temp Dewpoint Dewpoint Depression Visibility Wind Speed Wind Dir Waves Ship Positions

Ocean Cobalt

Last reported at 2017-Oct-30 09:26 UTC. Time now 2017-Nov-23 23:53 UTC.
Position N 22°16' W 027°48'.
Warning: this ship's position is 24 days out of date.

Length 289 m; draft 10.3 m.

Type: Cargo ship. MMSI: 370272000.

Date/timePositionNaut miles runAvg speedWind from/ knotsBaromVisibWave heightAir tempDewpointWater temp
2017-Oct-30 09:26N 22°16' W 027°48'1412.4
2017-Oct-30 08:17N 22°28' W 027°40'312.3
2017-Oct-30 08:00N 22°31' W 027°38'7312.5
2017-Oct-30 02:12N 23°32' W 026°54'312.8
2017-Oct-30 01:59N 23°34' W 026°53'612.6
2017-Oct-30 01:29N 23°40' W 026°49'612.6
2017-Oct-30 00:59N 23°45' W 026°45'712.7
2017-Oct-30 00:26N 23°51' W 026°41'612.5
2017-Oct-29 23:55N 23°56' W 026°37'512.6
2017-Oct-29 23:30N 24°01' W 026°34'1612.8
2017-Oct-29 22:17N 24°14' W 026°25'1312.6
2017-Oct-29 21:14N 24°25' W 026°17'312.4
2017-Oct-29 20:59N 24°27' W 026°15'812.9
2017-Oct-29 20:23N 24°34' W 026°10'2012.7
2017-Oct-29 18:50N 24°50' W 025°59'412.7
2017-Oct-29 18:30N 24°54' W 025°56'712.7
2017-Oct-29 17:58N 24°60' W 025°52'812.8
2017-Oct-29 17:20N 25°06' W 025°47'413.0
2017-Oct-29 16:59N 25°10' W 025°44'2713.3
2017-Oct-29 14:58N 25°32' W 025°28'913.6
2017-Oct-29 14:20N 25°40' W 025°23'513.3
2017-Oct-29 13:59N 25°44' W 025°20'713.5
2017-Oct-29 13:26N 25°50' W 025°16'613.5
2017-Oct-29 13:00N 25°55' W 025°12'713.5
2017-Oct-29 12:28N 26°01' W 025°08'613.7
2017-Oct-29 12:01N 26°06' W 025°04'713.3
2017-Oct-29 11:29N 26°12' W 024°60'813.5
2017-Oct-29 10:51N 26°19' W 024°54'3313.3
2017-Oct-29 08:22N 26°47' W 024°34'39912.9
2017-Oct-28 01:21N 32°20' W 020°24'412.9
2017-Oct-28 01:00N 32°24' W 020°21'612.9
2017-Oct-28 00:30N 32°29' W 020°17'612.6
2017-Oct-28 00:00N 32°35' W 020°13'612.7
2017-Oct-27 23:30N 32°40' W 020°09'612.7
2017-Oct-27 23:00N 32°46' W 020°05'2112.7
2017-Oct-27 21:21N 33°03' W 019°51'6012.0
2017-Oct-27 16:20N 33°53' W 019°12'412.1
2017-Oct-27 15:59N 33°57' W 019°09'612.3
2017-Oct-27 15:30N 34°02' W 019°05'612.5
2017-Oct-27 15:00N 34°07' W 019°00'2412.7
2017-Oct-27 13:06N 34°27' W 018°45'112.6
2017-Oct-27 13:00N 34°28' W 018°44'5812.5
2017-Oct-27 08:24N 35°17' W 018°05'8112.7
2017-Oct-27 02:03N 36°24' W 017°11'212.5
2017-Oct-27 01:54N 36°26' W 017°10'5212.1
2017-Oct-26 21:37N 37°09' W 016°34'10611.8
2017-Oct-26 12:37N 38°38' W 015°21'111.6
2017-Oct-26 12:30N 38°39' W 015°20'3412.0
2017-Oct-26 09:40N 39°08' W 014°56'212.2
2017-Oct-26 09:30N 39°09' W 014°55'44112.5
2017-Oct-24 22:11N 45°18' W 009°29'212.7
2017-Oct-24 21:59N 45°20' W 009°27'2012.5
2017-Oct-24 20:23N 45°37' W 009°11'712.4
2017-Oct-24 19:50N 45°43' W 009°06'1112.3
2017-Oct-24 18:56N 45°52' W 008°57'3111.5
2017-Oct-24 16:14N 46°18' W 008°33'2310.5
2017-Oct-24 14:02N 46°37' W 008°14'5111.5
2017-Oct-24 09:37N 47°20' W 007°34'211.9
2017-Oct-24 09:28N 47°21' W 007°32'612.1
2017-Oct-24 09:01N 47°26' W 007°28'611.6
2017-Oct-24 08:29N 47°31' W 007°23'712.0
2017-Oct-24 07:56N 47°37' W 007°18'612.5
2017-Oct-24 07:29N 47°42' W 007°14'510.2
2017-Oct-24 06:58N 47°45' W 007°09'1011.8
2017-Oct-24 06:07N 47°54' W 007°01'311.4
2017-Oct-24 05:49N 47°57' W 006°58'411.1
2017-Oct-24 05:25N 48°01' W 006°55'410.8
2017-Oct-24 05:00N 48°04' W 006°51'910.6
2017-Oct-24 04:11N 48°11' W 006°44'1410.6
2017-Oct-24 02:51N 48°23' W 006°32'410.7
2017-Oct-24 02:26N 48°27' W 006°28'611.1
2017-Oct-24 01:55N 48°32' W 006°23'911.8
2017-Oct-24 01:09N 48°40' W 006°17'1012.4
2017-Oct-24 00:23N 48°48' W 006°10'612.4
2017-Oct-23 23:52N 48°53' W 006°03'712.5
2017-Oct-23 23:21N 48°58' W 005°57'1112.4
2017-Oct-23 22:27N 49°04' W 005°43'5210.9
2017-Oct-23 17:40N 49°27' W 004°31'210.4
2017-Oct-23 17:29N 49°28' W 004°29'510.9
2017-Oct-23 17:00N 49°31' W 004°21'611.3
2017-Oct-23 16:29N 49°33' W 004°13'1012.1
2017-Oct-23 15:38N 49°38' W 003°59'312.7
2017-Oct-23 15:24N 49°39' W 003°55'613.1
2017-Oct-23 14:59N 49°42' W 003°47'613.5
2017-Oct-23 14:30N 49°45' W 003°39'713.4
2017-Oct-23 14:00N 49°47' W 003°29'713.2
2017-Oct-23 13:30N 49°50' W 003°20'613.0
2017-Oct-23 13:00N 49°53' W 003°11'612.4
2017-Oct-23 12:30N 49°56' W 003°03'611.8
2017-Oct-23 12:00N 49°59' W 002°54'611.3
2017-Oct-23 11:30N 50°00' W 002°46'610.5
2017-Oct-23 10:56N 50°02' W 002°37'59 9.5
2017-Oct-23 04:44N 50°18' W 001°08'414.1
2017-Oct-23 04:26N 50°19' W 001°02'2313.5
2017-Oct-23 02:45N 50°25' W 000°28'312.8
2017-Oct-23 02:30N 50°26' W 000°23'612.4
2017-Oct-23 01:59N 50°28' W 000°13'611.9
2017-Oct-23 01:30N 50°29' W 000°05'611.2
2017-Oct-23 01:00N 50°31' E 000°04'510.3
2017-Oct-23 00:30N 50°32' E 000°11'5 9.7
2017-Oct-23 00:00N 50°33' E 000°19'5 9.4
2017-Oct-22 23:30N 50°35' E 000°26'4 9.0
2017-Oct-22 23:00N 50°36' E 000°33'4 8.9
2017-Oct-22 22:30N 50°38' E 000°39'5 9.5
2017-Oct-22 22:00N 50°40' E 000°45'510.2
2017-Oct-22 21:30N 50°43' E 000°52'611.0
2017-Oct-22 21:00N 50°46' E 000°59'612.1
2017-Oct-22 20:31N 50°50' E 001°07'612.8
2017-Oct-22 20:00N 50°54' E 001°15'713.6
2017-Oct-22 19:30N 50°59' E 001°23'713.2
2017-Oct-22 19:00N 51°03' E 001°30'612.5
2017-Oct-22 18:30N 51°08' E 001°37'611.9
2017-Oct-22 18:00N 51°12' E 001°44'611.6
2017-Oct-22 17:30N 51°17' E 001°48'510.7
2017-Oct-22 17:00N 51°22' E 001°52'510.3
2017-Oct-22 16:30N 51°26' E 001°56'5 9.7
2017-Oct-22 16:00N 51°30' E 002°01'5 9.4
2017-Oct-22 15:30N 51°34' E 002°06'5 9.2
2017-Oct-22 15:00N 51°37' E 002°11'5 9.0
2017-Oct-22 14:30N 51°40' E 002°15'5 9.4
2017-Oct-22 14:00N 51°44' E 002°21'4611.2
2017-Oct-22 09:55N 52°03' E 003°28'410.0
2017-Oct-22 09:30N 52°03' E 003°34'510.1
2017-Oct-22 09:00N 52°03' E 003°42'5 9.9
2017-Oct-22 08:30N 52°03' E 003°51'3 5.3
2017-Oct-22 08:00N 52°02' E 003°55'3 6.0
2017-Oct-22 07:30N 52°01' E 003°59'4 8.7
2017-Oct-22 07:00N 51°59' E 004°05'2 4.1
2017-Oct-22 06:30N 51°57' E 004°05'1 1.3
2017-Oct-22 05:59N 51°56' E 004°03'0 0.0
2017-Oct-22 05:29N 51°56' E 004°03'0 0.0
2017-Oct-22 04:59N 51°56' E 004°03'0 0.0
2017-Oct-22 04:29N 51°56' E 004°03'0 0.0
2017-Oct-22 03:59N 51°56' E 004°03'0 0.0
2017-Oct-22 03:29N 51°56' E 004°03'0 0.0
2017-Oct-22 02:59N 51°56' E 004°03'0 0.0
2017-Oct-22 02:29N 51°56' E 004°03'0 0.0
2017-Oct-22 01:59N 51°56' E 004°03'0 0.0
2017-Oct-22 01:29N 51°56' E 004°03'0 0.0
2017-Oct-22 00:59N 51°56' E 004°03'0 0.0
2017-Oct-22 00:29N 51°56' E 004°03'0 0.0
2017-Oct-21 23:59N 51°56' E 004°03'0 0.0
2017-Oct-21 23:29N 51°56' E 004°03'0 0.0
2017-Oct-21 22:59N 51°56' E 004°03'0 0.0
2017-Oct-21 22:29N 51°56' E 004°03'0 0.0
2017-Oct-21 21:59N 51°56' E 004°03'0 0.0
2017-Oct-21 21:29N 51°56' E 004°03'0 0.0
2017-Oct-21 20:59N 51°56' E 004°03'0 0.0
2017-Oct-21 20:29N 51°56' E 004°03'0 0.0
2017-Oct-21 19:59N 51°56' E 004°03'0 0.1
2017-Oct-21 19:29N 51°56' E 004°03'0 0.0
2017-Oct-21 18:59N 51°56' E 004°03'0 0.0
2017-Oct-21 18:29N 51°56' E 004°03'0 0.0
2017-Oct-21 17:59N 51°56' E 004°03'0 0.0
2017-Oct-21 17:29N 51°56' E 004°03'0 0.0
2017-Oct-21 16:59N 51°56' E 004°03'0 0.0
2017-Oct-21 16:29N 51°56' E 004°03'0 0.0
2017-Oct-21 15:59N 51°56' E 004°03'0 0.0
2017-Oct-21 15:29N 51°56' E 004°03'0 0.0
2017-Oct-21 14:59N 51°56' E 004°03'0 0.0
2017-Oct-21 14:29N 51°56' E 004°03'0 0.0
2017-Oct-21 13:29N 51°56' E 004°03'0 0.0
2017-Oct-21 12:59N 51°56' E 004°03'0 0.0
2017-Oct-21 12:29N 51°56' E 004°03'0 0.0
2017-Oct-21 11:59N 51°56' E 004°03'0 0.0
2017-Oct-21 11:29N 51°56' E 004°03'0 0.0
2017-Oct-21 10:59N 51°56' E 004°03'0 0.0
2017-Oct-21 10:29N 51°56' E 004°03'0 0.0
2017-Oct-21 09:59N 51°56' E 004°03'0 0.0
2017-Oct-21 09:29N 51°56' E 004°03'0 0.0
2017-Oct-21 08:59N 51°56' E 004°03'0 0.0
2017-Oct-21 08:29N 51°56' E 004°03'0 0.0
2017-Oct-21 07:59N 51°56' E 004°03'0 0.0
2017-Oct-21 07:29N 51°56' E 004°03'0 0.0
2017-Oct-21 06:59N 51°56' E 004°03'0 0.0
2017-Oct-21 06:29N 51°56' E 004°03'0 0.0
2017-Oct-21 05:59N 51°56' E 004°03'0 0.0
2017-Oct-21 05:29N 51°56' E 004°03'0 0.0
2017-Oct-21 04:59N 51°56' E 004°03'0 0.0
2017-Oct-21 04:29N 51°56' E 004°03'0 0.0
2017-Oct-21 03:59N 51°56' E 004°03'0 0.0
2017-Oct-21 03:29N 51°56' E 004°03'0 0.0
2017-Oct-21 02:59N 51°56' E 004°03'0 0.0
2017-Oct-21 02:29N 51°56' E 004°03'0 0.0
2017-Oct-21 01:59N 51°56' E 004°03'0 0.0
2017-Oct-21 01:29N 51°56' E 004°03'0 0.0
2017-Oct-21 00:59N 51°56' E 004°03'0 0.0
2017-Oct-21 00:29N 51°56' E 004°03'0 0.0
2017-Oct-20 23:59N 51°56' E 004°03'0 0.0
2017-Oct-20 23:29N 51°56' E 004°03'0 0.0
2017-Oct-20 22:59N 51°56' E 004°03'0 0.0
2017-Oct-20 22:29N 51°56' E 004°03'0 0.0
2017-Oct-20 21:59N 51°56' E 004°03'0 0.0
2017-Oct-20 21:29N 51°56' E 004°03'0 0.0
2017-Oct-20 20:59N 51°56' E 004°03'0 0.0
2017-Oct-20 20:29N 51°56' E 004°03'0 0.0
2017-Oct-20 19:59N 51°56' E 004°03'0 0.0
2017-Oct-20 19:26N 51°56' E 004°03'0 0.0
2017-Oct-20 18:59N 51°56' E 004°03'0 0.0
2017-Oct-20 18:29N 51°56' E 004°03'0 0.0
2017-Oct-20 17:59N 51°56' E 004°03'0 0.0
2017-Oct-20 17:29N 51°56' E 004°03'0 0.0
2017-Oct-20 16:59N 51°56' E 004°03'0 0.0
2017-Oct-20 16:29N 51°56' E 004°03'0 0.0
2017-Oct-20 15:59N 51°56' E 004°03'0 0.0
2017-Oct-20 15:29N 51°56' E 004°03'0 0.0
2017-Oct-20 14:56N 51°56' E 004°03'0 0.0
2017-Oct-20 14:29N 51°56' E 004°03'0 0.0
2017-Oct-20 13:29N 51°56' E 004°03'0 0.0
2017-Oct-20 12:59N 51°56' E 004°03'0 0.0
2017-Oct-20 12:29N 51°56' E 004°03'0 0.0
2017-Oct-20 11:59N 51°56' E 004°03'0 0.0
2017-Oct-20 11:29N 51°56' E 004°03'0 0.0
2017-Oct-20 10:56N 51°56' E 004°03'0 0.0
2017-Oct-20 10:29N 51°56' E 004°03'0 0.0
2017-Oct-20 09:59N 51°56' E 004°03'0 0.0
2017-Oct-20 09:29N 51°56' E 004°03'  
Track history (hours):
 
Tides and Currents Weather Stations Pressure Air Temp Water Temp Dewpoint Dewpoint Depression Visibility Wind Speed Wind Dir Waves Ship Positions

Ocean Cobalt

Last reported at 2017-Oct-30 09:26 UTC. Time now 2017-Nov-23 23:53 UTC.
Position N 22°16' W 027°48'.
Warning: this ship's position is 24 days out of date.

Length 289 m; draft 10.3 m.

Type: Cargo ship. MMSI: 370272000.

Date/timePositionNaut miles runAvg speedWind from/ knotsBaromVisibWave heightAir tempDewpointWater temp
2017-Oct-30 09:26N 22°16' W 027°48'1412.4
2017-Oct-30 08:17N 22°28' W 027°40'312.3
2017-Oct-30 08:00N 22°31' W 027°38'7312.5
2017-Oct-30 02:12N 23°32' W 026°54'312.8
2017-Oct-30 01:59N 23°34' W 026°53'612.6
2017-Oct-30 01:29N 23°40' W 026°49'612.6
2017-Oct-30 00:59N 23°45' W 026°45'712.7
2017-Oct-30 00:26N 23°51' W 026°41'612.5
2017-Oct-29 23:55N 23°56' W 026°37'512.6
2017-Oct-29 23:30N 24°01' W 026°34'1612.8
2017-Oct-29 22:17N 24°14' W 026°25'1312.6
2017-Oct-29 21:14N 24°25' W 026°17'312.4
2017-Oct-29 20:59N 24°27' W 026°15'812.9
2017-Oct-29 20:23N 24°34' W 026°10'2012.7
2017-Oct-29 18:50N 24°50' W 025°59'412.7
2017-Oct-29 18:30N 24°54' W 025°56'712.7
2017-Oct-29 17:58N 24°60' W 025°52'812.8
2017-Oct-29 17:20N 25°06' W 025°47'413.0
2017-Oct-29 16:59N 25°10' W 025°44'2713.3
2017-Oct-29 14:58N 25°32' W 025°28'913.6
2017-Oct-29 14:20N 25°40' W 025°23'513.3
2017-Oct-29 13:59N 25°44' W 025°20'713.5
2017-Oct-29 13:26N 25°50' W 025°16'613.5
2017-Oct-29 13:00N 25°55' W 025°12'713.5
2017-Oct-29 12:28N 26°01' W 025°08'613.7
2017-Oct-29 12:01N 26°06' W 025°04'713.3
2017-Oct-29 11:29N 26°12' W 024°60'813.5
2017-Oct-29 10:51N 26°19' W 024°54'3313.3
2017-Oct-29 08:22N 26°47' W 024°34'39912.9
2017-Oct-28 01:21N 32°20' W 020°24'412.9
2017-Oct-28 01:00N 32°24' W 020°21'612.9
2017-Oct-28 00:30N 32°29' W 020°17'612.6
2017-Oct-28 00:00N 32°35' W 020°13'612.7
2017-Oct-27 23:30N 32°40' W 020°09'612.7
2017-Oct-27 23:00N 32°46' W 020°05'2112.7
2017-Oct-27 21:21N 33°03' W 019°51'6012.0
2017-Oct-27 16:20N 33°53' W 019°12'412.1
2017-Oct-27 15:59N 33°57' W 019°09'612.3
2017-Oct-27 15:30N 34°02' W 019°05'612.5
2017-Oct-27 15:00N 34°07' W 019°00'2412.7
2017-Oct-27 13:06N 34°27' W 018°45'112.6
2017-Oct-27 13:00N 34°28' W 018°44'5812.5
2017-Oct-27 08:24N 35°17' W 018°05'8112.7
2017-Oct-27 02:03N 36°24' W 017°11'212.5
2017-Oct-27 01:54N 36°26' W 017°10'5212.1
2017-Oct-26 21:37N 37°09' W 016°34'10611.8
2017-Oct-26 12:37N 38°38' W 015°21'111.6
2017-Oct-26 12:30N 38°39' W 015°20'3412.0
2017-Oct-26 09:40N 39°08' W 014°56'212.2
2017-Oct-26 09:30N 39°09' W 014°55'44112.5
2017-Oct-24 22:11N 45°18' W 009°29'212.7
2017-Oct-24 21:59N 45°20' W 009°27'2012.5
2017-Oct-24 20:23N 45°37' W 009°11'712.4
2017-Oct-24 19:50N 45°43' W 009°06'1112.3
2017-Oct-24 18:56N 45°52' W 008°57'3111.5
2017-Oct-24 16:14N 46°18' W 008°33'2310.5
2017-Oct-24 14:02N 46°37' W 008°14'5111.5
2017-Oct-24 09:37N 47°20' W 007°34'211.9
2017-Oct-24 09:28N 47°21' W 007°32'612.1
2017-Oct-24 09:01N 47°26' W 007°28'611.6
2017-Oct-24 08:29N 47°31' W 007°23'712.0
2017-Oct-24 07:56N 47°37' W 007°18'612.5
2017-Oct-24 07:29N 47°42' W 007°14'510.2
2017-Oct-24 06:58N 47°45' W 007°09'1011.8
2017-Oct-24 06:07N 47°54' W 007°01'311.4
2017-Oct-24 05:49N 47°57' W 006°58'411.1
2017-Oct-24 05:25N 48°01' W 006°55'410.8
2017-Oct-24 05:00N 48°04' W 006°51'910.6
2017-Oct-24 04:11N 48°11' W 006°44'1410.6
2017-Oct-24 02:51N 48°23' W 006°32'410.7
2017-Oct-24 02:26N 48°27' W 006°28'611.1
2017-Oct-24 01:55N 48°32' W 006°23'911.8
2017-Oct-24 01:09N 48°40' W 006°17'1012.4
2017-Oct-24 00:23N 48°48' W 006°10'612.4
2017-Oct-23 23:52N 48°53' W 006°03'712.5
2017-Oct-23 23:21N 48°58' W 005°57'1112.4
2017-Oct-23 22:27N 49°04' W 005°43'5210.9
2017-Oct-23 17:40N 49°27' W 004°31'210.4
2017-Oct-23 17:29N 49°28' W 004°29'510.9
2017-Oct-23 17:00N 49°31' W 004°21'611.3
2017-Oct-23 16:29N 49°33' W 004°13'1012.1
2017-Oct-23 15:38N 49°38' W 003°59'312.7
2017-Oct-23 15:24N 49°39' W 003°55'613.1
2017-Oct-23 14:59N 49°42' W 003°47'613.5
2017-Oct-23 14:30N 49°45' W 003°39'713.4
2017-Oct-23 14:00N 49°47' W 003°29'713.2
2017-Oct-23 13:30N 49°50' W 003°20'613.0
2017-Oct-23 13:00N 49°53' W 003°11'612.4
2017-Oct-23 12:30N 49°56' W 003°03'611.8
2017-Oct-23 12:00N 49°59' W 002°54'611.3
2017-Oct-23 11:30N 50°00' W 002°46'610.5
2017-Oct-23 10:56N 50°02' W 002°37'59 9.5
2017-Oct-23 04:44N 50°18' W 001°08'414.1
2017-Oct-23 04:26N 50°19' W 001°02'2313.5
2017-Oct-23 02:45N 50°25' W 000°28'312.8
2017-Oct-23 02:30N 50°26' W 000°23'612.4
2017-Oct-23 01:59N 50°28' W 000°13'611.9
2017-Oct-23 01:30N 50°29' W 000°05'611.2
2017-Oct-23 01:00N 50°31' E 000°04'510.3
2017-Oct-23 00:30N 50°32' E 000°11'5 9.7
2017-Oct-23 00:00N 50°33' E 000°19'5 9.4
2017-Oct-22 23:30N 50°35' E 000°26'4 9.0
2017-Oct-22 23:00N 50°36' E 000°33'4 8.9
2017-Oct-22 22:30N 50°38' E 000°39'5 9.5
2017-Oct-22 22:00N 50°40' E 000°45'510.2
2017-Oct-22 21:30N 50°43' E 000°52'611.0
2017-Oct-22 21:00N 50°46' E 000°59'612.1
2017-Oct-22 20:31N 50°50' E 001°07'612.8
2017-Oct-22 20:00N 50°54' E 001°15'713.6
2017-Oct-22 19:30N 50°59' E 001°23'713.2
2017-Oct-22 19:00N 51°03' E 001°30'612.5
2017-Oct-22 18:30N 51°08' E 001°37'611.9
2017-Oct-22 18:00N 51°12' E 001°44'611.6
2017-Oct-22 17:30N 51°17' E 001°48'510.7
2017-Oct-22 17:00N 51°22' E 001°52'510.3
2017-Oct-22 16:30N 51°26' E 001°56'5 9.7
2017-Oct-22 16:00N 51°30' E 002°01'5 9.4
2017-Oct-22 15:30N 51°34' E 002°06'5 9.2
2017-Oct-22 15:00N 51°37' E 002°11'5 9.0
2017-Oct-22 14:30N 51°40' E 002°15'5 9.4
2017-Oct-22 14:00N 51°44' E 002°21'4611.2
2017-Oct-22 09:55N 52°03' E 003°28'410.0
2017-Oct-22 09:30N 52°03' E 003°34'510.1
2017-Oct-22 09:00N 52°03' E 003°42'5 9.9
2017-Oct-22 08:30N 52°03' E 003°51'3 5.3
2017-Oct-22 08:00N 52°02' E 003°55'3 6.0
2017-Oct-22 07:30N 52°01' E 003°59'4 8.7
2017-Oct-22 07:00N 51°59' E 004°05'2 4.1
2017-Oct-22 06:30N 51°57' E 004°05'1 1.3
2017-Oct-22 05:59N 51°56' E 004°03'0 0.0
2017-Oct-22 05:29N 51°56' E 004°03'0 0.0
2017-Oct-22 04:59N 51°56' E 004°03'0 0.0
2017-Oct-22 04:29N 51°56' E 004°03'0 0.0
2017-Oct-22 03:59N 51°56' E 004°03'0 0.0
2017-Oct-22 03:29N 51°56' E 004°03'0 0.0
2017-Oct-22 02:59N 51°56' E 004°03'0 0.0
2017-Oct-22 02:29N 51°56' E 004°03'0 0.0
2017-Oct-22 01:59N 51°56' E 004°03'0 0.0
2017-Oct-22 01:29N 51°56' E 004°03'0 0.0
2017-Oct-22 00:59N 51°56' E 004°03'0 0.0
2017-Oct-22 00:29N 51°56' E 004°03'0 0.0
2017-Oct-21 23:59N 51°56' E 004°03'0 0.0
2017-Oct-21 23:29N 51°56' E 004°03'0 0.0
2017-Oct-21 22:59N 51°56' E 004°03'0 0.0
2017-Oct-21 22:29N 51°56' E 004°03'0 0.0
2017-Oct-21 21:59N 51°56' E 004°03'0 0.0
2017-Oct-21 21:29N 51°56' E 004°03'0 0.0
2017-Oct-21 20:59N 51°56' E 004°03'0 0.0
2017-Oct-21 20:29N 51°56' E 004°03'0 0.0
2017-Oct-21 19:59N 51°56' E 004°03'0 0.1
2017-Oct-21 19:29N 51°56' E 004°03'0 0.0
2017-Oct-21 18:59N 51°56' E 004°03'0 0.0
2017-Oct-21 18:29N 51°56' E 004°03'0 0.0
2017-Oct-21 17:59N 51°56' E 004°03'0 0.0
2017-Oct-21 17:29N 51°56' E 004°03'0 0.0
2017-Oct-21 16:59N 51°56' E 004°03'0 0.0
2017-Oct-21 16:29N 51°56' E 004°03'0 0.0
2017-Oct-21 15:59N 51°56' E 004°03'0 0.0
2017-Oct-21 15:29N 51°56' E 004°03'0 0.0
2017-Oct-21 14:59N 51°56' E 004°03'0 0.0
2017-Oct-21 14:29N 51°56' E 004°03'0 0.0
2017-Oct-21 13:29N 51°56' E 004°03'0 0.0
2017-Oct-21 12:59N 51°56' E 004°03'0 0.0
2017-Oct-21 12:29N 51°56' E 004°03'0 0.0
2017-Oct-21 11:59N 51°56' E 004°03'0 0.0
2017-Oct-21 11:29N 51°56' E 004°03'0 0.0
2017-Oct-21 10:59N 51°56' E 004°03'0 0.0
2017-Oct-21 10:29N 51°56' E 004°03'0 0.0
2017-Oct-21 09:59N 51°56' E 004°03'0 0.0
2017-Oct-21 09:29N 51°56' E 004°03'0 0.0
2017-Oct-21 08:59N 51°56' E 004°03'0 0.0
2017-Oct-21 08:29N 51°56' E 004°03'0 0.0
2017-Oct-21 07:59N 51°56' E 004°03'0 0.0
2017-Oct-21 07:29N 51°56' E 004°03'0 0.0
2017-Oct-21 06:59N 51°56' E 004°03'0 0.0
2017-Oct-21 06:29N 51°56' E 004°03'0 0.0
2017-Oct-21 05:59N 51°56' E 004°03'0 0.0
2017-Oct-21 05:29N 51°56' E 004°03'0 0.0
2017-Oct-21 04:59N 51°56' E 004°03'0 0.0
2017-Oct-21 04:29N 51°56' E 004°03'0 0.0
2017-Oct-21 03:59N 51°56' E 004°03'0 0.0
2017-Oct-21 03:29N 51°56' E 004°03'0 0.0
2017-Oct-21 02:59N 51°56' E 004°03'0 0.0
2017-Oct-21 02:29N 51°56' E 004°03'0 0.0
2017-Oct-21 01:59N 51°56' E 004°03'0 0.0
2017-Oct-21 01:29N 51°56' E 004°03'0 0.0
2017-Oct-21 00:59N 51°56' E 004°03'0 0.0
2017-Oct-21 00:29N 51°56' E 004°03'0 0.0
2017-Oct-20 23:59N 51°56' E 004°03'0 0.0
2017-Oct-20 23:29N 51°56' E 004°03'0 0.0
2017-Oct-20 22:59N 51°56' E 004°03'0 0.0
2017-Oct-20 22:29N 51°56' E 004°03'0 0.0
2017-Oct-20 21:59N 51°56' E 004°03'0 0.0
2017-Oct-20 21:29N 51°56' E 004°03'0 0.0
2017-Oct-20 20:59N 51°56' E 004°03'0 0.0
2017-Oct-20 20:29N 51°56' E 004°03'0 0.0
2017-Oct-20 19:59N 51°56' E 004°03'0 0.0
2017-Oct-20 19:26N 51°56' E 004°03'0 0.0
2017-Oct-20 18:59N 51°56' E 004°03'0 0.0
2017-Oct-20 18:29N 51°56' E 004°03'0 0.0
2017-Oct-20 17:59N 51°56' E 004°03'0 0.0
2017-Oct-20 17:29N 51°56' E 004°03'0 0.0
2017-Oct-20 16:59N 51°56' E 004°03'0 0.0
2017-Oct-20 16:29N 51°56' E 004°03'0 0.0
2017-Oct-20 15:59N 51°56' E 004°03'0 0.0
2017-Oct-20 15:29N 51°56' E 004°03'0 0.0
2017-Oct-20 14:56N 51°56' E 004°03'0 0.0
2017-Oct-20 14:29N 51°56' E 004°03'0 0.0
2017-Oct-20 13:29N 51°56' E 004°03'0 0.0
2017-Oct-20 12:59N 51°56' E 004°03'0 0.0
2017-Oct-20 12:29N 51°56' E 004°03'0 0.0
2017-Oct-20 11:59N 51°56' E 004°03'0 0.0
2017-Oct-20 11:29N 51°56' E 004°03'0 0.0
2017-Oct-20 10:56N 51°56' E 004°03'0 0.0
2017-Oct-20 10:29N 51°56' E 004°03'0 0.0
2017-Oct-20 09:59N 51°56' E 004°03'0 0.0
2017-Oct-20 09:29N 51°56' E 004°03'  

Dump ship's entire track history